Terminal Aerodrome Forecast
Issued by NWS

Home | Current Version | Previous Version | Text Only | Print | Product List | Glossary On
Versions: 1 2 3 4 5 6 7 8 9 10 11 12 13 14 15
000
FTUS45 KTFX 201100
TAFBZN
TAF
KBZN 201124Z 2012/2112 30006KT P6SM BKN120
     FM201400 28008KT P6SM SCT120
     FM202000 29012KT P6SM SKC
     FM210300 15005KT P6SM BKN250=

USA.gov is the U.S. government's official web portal to all federal, state and local government web resources and services.